sensor_id;sensor_type;location;lat;lon;timestamp;pressure;altitude;pressure_sealevel;temperature;humidity
64679;BME280;51094;53.864;27.676;2023-04-02T00:09:02;97899.44;;;7.85;87.91
64679;BME280;51094;53.864;27.676;2023-04-02T00:11:47;97904.81;;;7.93;88.61
64679;BME280;51094;53.864;27.676;2023-04-02T00:16:53;97879.25;;;7.79;88.96
64679;BME280;51094;53.864;27.676;2023-04-02T00:19:30;97909.63;;;7.98;88.90
64679;BME280;51094;53.864;27.676;2023-04-02T00:22:02;97911.28;;;7.99;89.27
64679;BME280;51094;53.864;27.676;2023-04-02T00:24:32;97839.84;;;7.55;89.72
64679;BME280;51094;53.864;27.676;2023-04-02T00:26:59;97864.47;;;7.70;89.07
64679;BME280;51094;53.864;27.676;2023-04-02T00:29:26;97906.00;;;7.89;89.23
64679;BME280;51094;53.864;27.676;2023-04-02T00:31:54;97923.56;;;7.86;89.30
64679;BME280;51094;53.864;27.676;2023-04-02T00:34:35;97916.84;;;7.83;89.26
64679;BME280;51094;53.864;27.676;2023-04-02T00:37:03;97871.59;;;7.46;89.36
64679;BME280;51094;53.864;27.676;2023-04-02T00:39:36;97921.34;;;7.81;90.07
64679;BME280;51094;53.864;27.676;2023-04-02T00:42:11;97887.31;;;7.65;90.05
64679;BME280;51094;53.864;27.676;2023-04-02T00:44:43;97922.50;;;7.88;89.88
64679;BME280;51094;53.864;27.676;2023-04-02T00:47:17;97923.06;;;7.92;89.98
64679;BME280;51094;53.864;27.676;2023-04-02T00:49:49;97928.94;;;7.94;89.94
64679;BME280;51094;53.864;27.676;2023-04-02T00:52:21;97872.75;;;7.53;89.40
64679;BME280;51094;53.864;27.676;2023-04-02T00:55:04;97942.75;;;7.83;90.04
64679;BME280;51094;53.864;27.676;2023-04-02T00:57:32;97937.00;;;7.80;90.05
64679;BME280;51094;53.864;27.676;2023-04-02T01:00:09;97895.56;;;7.59;90.24
64679;BME280;51094;53.864;27.676;2023-04-02T01:02:37;97856.16;;;7.34;89.80
64679;BME280;51094;53.864;27.676;2023-04-02T01:07:54;97951.97;;;7.76;90.25
64679;BME280;51094;53.864;27.676;2023-04-02T01:13:24;97924.25;;;7.88;90.61
64679;BME280;51094;53.864;27.676;2023-04-02T01:21:40;97926.47;;;7.92;90.03
64679;BME280;51094;53.864;27.676;2023-04-02T01:24:12;97763.78;;;6.93;90.92
64679;BME280;51094;53.864;27.676;2023-04-02T01:26:51;97919.72;;;8.01;90.50
64679;BME280;51094;53.864;27.676;2023-04-02T01:31:48;97923.59;;;8.07;90.24
64679;BME280;51094;53.864;27.676;2023-04-02T01:34:21;97782.78;;;7.04;90.18
64679;BME280;51094;53.864;27.676;2023-04-02T01:39:59;97930.59;;;7.95;90.17
64679;BME280;51094;53.864;27.676;2023-04-02T01:42:37;97898.47;;;7.65;90.36
64679;BME280;51094;53.864;27.676;2023-04-02T01:45:13;97955.44;;;7.86;90.27
64679;BME280;51094;53.864;27.676;2023-04-02T01:47:42;97914.09;;;7.75;91.04
64679;BME280;51094;53.864;27.676;2023-04-02T01:52:52;97914.81;;;7.66;90.47
64679;BME280;51094;53.864;27.676;2023-04-02T01:55:34;97922.59;;;7.87;90.96
64679;BME280;51094;53.864;27.676;2023-04-02T01:58:04;97953.72;;;8.08;91.14
64679;BME280;51094;53.864;27.676;2023-04-02T02:00:33;97795.16;;;6.89;89.98
64679;BME280;51094;53.864;27.676;2023-04-02T02:03:04;97938.13;;;7.87;90.53
64679;BME280;51094;53.864;27.676;2023-04-02T02:05:32;97939.78;;;7.88;90.45
64679;BME280;51094;53.864;27.676;2023-04-02T02:07:59;97937.06;;;7.89;90.35
64679;BME280;51094;53.864;27.676;2023-04-02T02:10:32;97958.09;;;7.96;91.02
64679;BME280;51094;53.864;27.676;2023-04-02T02:13:00;97958.69;;;7.99;90.97
64679;BME280;51094;53.864;27.676;2023-04-02T02:15:27;97912.19;;;7.77;90.81
64679;BME280;51094;53.864;27.676;2023-04-02T02:17:58;97989.97;;;8.08;90.41
64679;BME280;51094;53.864;27.676;2023-04-02T02:20:27;97810.63;;;7.00;90.44
64679;BME280;51094;53.864;27.676;2023-04-02T02:22:55;97968.66;;;8.04;90.44
64679;BME280;51094;53.864;27.676;2023-04-02T02:25:27;97941.31;;;7.90;90.34
64679;BME280;51094;53.864;27.676;2023-04-02T02:28:14;97977.97;;;8.07;90.47
64679;BME280;51094;53.864;27.676;2023-04-02T02:30:46;97926.13;;;7.86;90.56
64679;BME280;51094;53.864;27.676;2023-04-02T02:33:37;97968.06;;;8.12;90.55
64679;BME280;51094;53.864;27.676;2023-04-02T02:36:27;97977.72;;;8.10;91.06
64679;BME280;51094;53.864;27.676;2023-04-02T02:39:15;97997.47;;;8.11;90.55
64679;BME280;51094;53.864;27.676;2023-04-02T02:41:54;97969.94;;;8.10;90.38
64679;BME280;51094;53.864;27.676;2023-04-02T02:44:30;97976.09;;;7.97;89.66
64679;BME280;51094;53.864;27.676;2023-04-02T02:47:14;97996.00;;;7.97;90.35
64679;BME280;51094;53.864;27.676;2023-04-02T02:49:44;98003.41;;;8.01;90.25
64679;BME280;51094;53.864;27.676;2023-04-02T02:52:16;97986.78;;;8.04;90.20
64679;BME280;51094;53.864;27.676;2023-04-02T02:55:06;97999.63;;;8.06;90.18
64679;BME280;51094;53.864;27.676;2023-04-02T02:57:52;97964.59;;;7.90;90.01
64679;BME280;51094;53.864;27.676;2023-04-02T03:00:23;97947.59;;;7.77;89.50
64679;BME280;51094;53.864;27.676;2023-04-02T03:02:53;97885.13;;;7.38;90.14
64679;BME280;51094;53.864;27.676;2023-04-02T03:05:26;97993.38;;;8.08;90.25
64679;BME280;51094;53.864;27.676;2023-04-02T03:07:59;97988.59;;;7.92;90.15
64679;BME280;51094;53.864;27.676;2023-04-02T03:10:39;97989.38;;;8.04;89.92
64679;BME280;51094;53.864;27.676;2023-04-02T03:13:31;98000.34;;;7.96;90.03
64679;BME280;51094;53.864;27.676;2023-04-02T03:16:19;97977.13;;;7.74;89.83
64679;BME280;51094;53.864;27.676;2023-04-02T03:19:01;97971.97;;;7.63;89.64
64679;BME280;51094;53.864;27.676;2023-04-02T03:24:08;97917.03;;;7.27;89.35
64679;BME280;51094;53.864;27.676;2023-04-02T03:26:48;98029.09;;;7.82;89.48
64679;BME280;51094;53.864;27.676;2023-04-02T03:29:21;98006.19;;;7.78;88.97
64679;BME280;51094;53.864;27.676;2023-04-02T03:31:58;97992.84;;;7.82;89.29
64679;BME280;51094;53.864;27.676;2023-04-02T03:34:36;98018.34;;;7.98;88.81
64679;BME280;51094;53.864;27.676;2023-04-02T03:39:59;97977.63;;;7.57;88.27
64679;BME280;51094;53.864;27.676;2023-04-02T03:42:38;98032.00;;;7.89;88.34
64679;BME280;51094;53.864;27.676;2023-04-02T03:45:19;98003.50;;;7.68;88.68
64679;BME280;51094;53.864;27.676;2023-04-02T03:50:33;98041.06;;;7.94;88.24
64679;BME280;51094;53.864;27.676;2023-04-02T03:53:02;97877.03;;;6.88;88.01
64679;BME280;51094;53.864;27.676;2023-04-02T03:55:33;98048.59;;;7.97;87.82
64679;BME280;51094;53.864;27.676;2023-04-02T03:58:22;97946.38;;;7.38;87.84
64679;BME280;51094;53.864;27.676;2023-04-02T04:03:41;97981.97;;;7.67;87.77
64679;BME280;51094;53.864;27.676;2023-04-02T04:06:26;98050.09;;;8.11;87.58
64679;BME280;51094;53.864;27.676;2023-04-02T04:08:59;98051.63;;;8.14;88.03
64679;BME280;51094;53.864;27.676;2023-04-02T04:11:34;98012.19;;;7.78;87.55
64679;BME280;51094;53.864;27.676;2023-04-02T04:14:17;98053.75;;;8.09;87.49
64679;BME280;51094;53.864;27.676;2023-04-02T04:17:08;98058.22;;;8.07;87.01
64679;BME280;51094;53.864;27.676;2023-04-02T04:19:45;98060.09;;;8.05;87.28
64679;BME280;51094;53.864;27.676;2023-04-02T04:22:23;98074.13;;;8.02;87.41
64679;BME280;51094;53.864;27.676;2023-04-02T04:25:17;98058.25;;;7.95;86.78
64679;BME280;51094;53.864;27.676;2023-04-02T04:30:30;98078.84;;;7.86;86.56
64679;BME280;51094;53.864;27.676;2023-04-02T04:33:12;98077.22;;;7.74;86.61
64679;BME280;51094;53.864;27.676;2023-04-02T04:35:48;98102.00;;;7.87;87.22
64679;BME280;51094;53.864;27.676;2023-04-02T04:38:36;98017.66;;;7.30;87.23
64679;BME280;51094;53.864;27.676;2023-04-02T04:41:14;98053.13;;;7.62;86.63
64679;BME280;51094;53.864;27.676;2023-04-02T04:47:05;98092.13;;;7.92;86.94
64679;BME280;51094;53.864;27.676;2023-04-02T04:49:56;98102.94;;;8.09;87.02
64679;BME280;51094;53.864;27.676;2023-04-02T04:52:39;98116.38;;;7.91;85.82
64679;BME280;51094;53.864;27.676;2023-04-02T04:55:29;98106.59;;;7.95;86.26
64679;BME280;51094;53.864;27.676;2023-04-02T04:58:31;98115.19;;;7.95;86.55
64679;BME280;51094;53.864;27.676;2023-04-02T05:09:20;98138.59;;;8.05;86.37
64679;BME280;51094;53.864;27.676;2023-04-02T05:12:04;98124.94;;;7.81;85.58
64679;BME280;51094;53.864;27.676;2023-04-02T05:14:59;98145.78;;;7.90;86.04
64679;BME280;51094;53.864;27.676;2023-04-02T05:20:48;98133.44;;;7.72;85.55
64679;BME280;51094;53.864;27.676;2023-04-02T05:23:28;98167.78;;;7.96;85.46
64679;BME280;51094;53.864;27.676;2023-04-02T05:26:06;98143.41;;;7.87;85.31
64679;BME280;51094;53.864;27.676;2023-04-02T05:28:50;98171.31;;;8.06;85.62
64679;BME280;51094;53.864;27.676;2023-04-02T05:31:24;98160.47;;;7.90;85.39
64679;BME280;51094;53.864;27.676;2023-04-02T05:33:54;98165.78;;;7.88;84.48
64679;BME280;51094;53.864;27.676;2023-04-02T05:36:27;98167.44;;;7.78;85.05
64679;BME280;51094;53.864;27.676;2023-04-02T05:38:58;98130.16;;;7.36;84.51
64679;BME280;51094;53.864;27.676;2023-04-02T05:41:45;98164.13;;;7.54;85.40
64679;BME280;51094;53.864;27.676;2023-04-02T05:44:27;98176.72;;;7.58;84.96
64679;BME280;51094;53.864;27.676;2023-04-02T05:46:58;98183.66;;;7.69;85.29
64679;BME280;51094;53.864;27.676;2023-04-02T05:52:12;98123.19;;;7.37;84.92
64679;BME280;51094;53.864;27.676;2023-04-02T05:57:24;98167.13;;;7.37;84.49
64679;BME280;51094;53.864;27.676;2023-04-02T06:00:16;98042.41;;;6.53;84.90
64679;BME280;51094;53.864;27.676;2023-04-02T06:02:49;98146.38;;;7.03;85.27
64679;BME280;51094;53.864;27.676;2023-04-02T06:05:23;98178.41;;;7.24;85.06
64679;BME280;51094;53.864;27.676;2023-04-02T06:11:12;98196.75;;;7.21;85.50
64679;BME280;51094;53.864;27.676;2023-04-02T06:13:44;98172.72;;;7.08;85.41
64679;BME280;51094;53.864;27.676;2023-04-02T06:16:13;98176.09;;;6.97;85.47
64679;BME280;51094;53.864;27.676;2023-04-02T06:18:42;98204.63;;;7.20;85.87
64679;BME280;51094;53.864;27.676;2023-04-02T06:21:14;98187.06;;;7.12;85.55
64679;BME280;51094;53.864;27.676;2023-04-02T06:23:58;98212.75;;;7.38;86.16
64679;BME280;51094;53.864;27.676;2023-04-02T06:26:32;98139.09;;;6.97;85.77
64679;BME280;51094;53.864;27.676;2023-04-02T06:29:07;98224.94;;;7.59;85.20
64679;BME280;51094;53.864;27.676;2023-04-02T06:31:41;98222.22;;;7.61;84.54
64679;BME280;51094;53.864;27.676;2023-04-02T06:34:18;98193.78;;;7.61;85.11
64679;BME280;51094;53.864;27.676;2023-04-02T06:37:01;98219.88;;;7.80;83.28
64679;BME280;51094;53.864;27.676;2023-04-02T06:39:31;98211.44;;;7.67;83.78
64679;BME280;51094;53.864;27.676;2023-04-02T06:42:08;98214.25;;;7.75;83.98
64679;BME280;51094;53.864;27.676;2023-04-02T06:44:55;98186.13;;;7.59;83.15
64679;BME280;51094;53.864;27.676;2023-04-02T06:47:44;98111.50;;;7.09;83.73
64679;BME280;51094;53.864;27.676;2023-04-02T06:50:30;98165.28;;;7.50;83.52
64679;BME280;51094;53.864;27.676;2023-04-02T06:53:04;98239.22;;;7.98;82.13
64679;BME280;51094;53.864;27.676;2023-04-02T06:58:44;98268.63;;;8.09;82.05
64679;BME280;51094;53.864;27.676;2023-04-02T07:01:16;98232.25;;;7.99;81.29
64679;BME280;51094;53.864;27.676;2023-04-02T07:03:44;98276.06;;;8.36;81.64
64679;BME280;51094;53.864;27.676;2023-04-02T07:06:25;98280.56;;;8.45;81.02
64679;BME280;51094;53.864;27.676;2023-04-02T07:08:56;98286.78;;;8.42;79.91
64679;BME280;51094;53.864;27.676;2023-04-02T07:11:23;98247.00;;;8.21;80.58
64679;BME280;51094;53.864;27.676;2023-04-02T07:13:54;98295.34;;;8.31;79.70
64679;BME280;51094;53.864;27.676;2023-04-02T07:16:25;98315.16;;;8.21;79.76
64679;BME280;51094;53.864;27.676;2023-04-02T07:18:54;98302.78;;;8.14;80.11
64679;BME280;51094;53.864;27.676;2023-04-02T07:21:23;98320.19;;;8.12;78.11
64679;BME280;51094;53.864;27.676;2023-04-02T07:23:51;98317.25;;;8.05;78.84
64679;BME280;51094;53.864;27.676;2023-04-02T07:26:20;98264.81;;;7.68;79.23
64679;BME280;51094;53.864;27.676;2023-04-02T07:28:48;98281.53;;;7.75;78.74
64679;BME280;51094;53.864;27.676;2023-04-02T07:31:18;98277.19;;;7.76;79.13
64679;BME280;51094;53.864;27.676;2023-04-02T07:33:45;98325.63;;;8.20;79.10
64679;BME280;51094;53.864;27.676;2023-04-02T07:36:18;98349.38;;;8.14;78.91
64679;BME280;51094;53.864;27.676;2023-04-02T07:38:46;98337.63;;;8.21;78.23
64679;BME280;51094;53.864;27.676;2023-04-02T07:41:14;98265.06;;;7.76;78.31
64679;BME280;51094;53.864;27.676;2023-04-02T07:43:41;98332.88;;;8.04;77.84
64679;BME280;51094;53.864;27.676;2023-04-02T07:46:09;98346.19;;;8.10;77.50
64679;BME280;51094;53.864;27.676;2023-04-02T07:48:37;98358.56;;;8.07;77.99
64679;BME280;51094;53.864;27.676;2023-04-02T07:51:04;98156.34;;;6.61;75.94
64679;BME280;51094;53.864;27.676;2023-04-02T07:53:34;98354.22;;;7.72;77.64
64679;BME280;51094;53.864;27.676;2023-04-02T07:56:02;98359.84;;;7.66;77.60
64679;BME280;51094;53.864;27.676;2023-04-02T07:58:30;98372.34;;;7.72;77.22
64679;BME280;51094;53.864;27.676;2023-04-02T08:00:58;98353.69;;;7.56;77.92
64679;BME280;51094;53.864;27.676;2023-04-02T08:03:25;98360.28;;;7.60;77.45
64679;BME280;51094;53.864;27.676;2023-04-02T08:05:54;98369.47;;;7.64;77.89
64679;BME280;51094;53.864;27.676;2023-04-02T08:08:22;98373.94;;;7.62;77.68
64679;BME280;51094;53.864;27.676;2023-04-02T08:10:50;98386.72;;;7.76;77.54
64679;BME280;51094;53.864;27.676;2023-04-02T08:13:17;98393.66;;;7.87;77.49
64679;BME280;51094;53.864;27.676;2023-04-02T08:15:44;98377.25;;;7.99;78.31
64679;BME280;51094;53.864;27.676;2023-04-02T08:18:11;98366.53;;;8.04;77.22
64679;BME280;51094;53.864;27.676;2023-04-02T08:20:38;98394.72;;;8.19;76.09
64679;BME280;51094;53.864;27.676;2023-04-02T08:23:12;98358.03;;;7.55;75.18
64679;BME280;51094;53.864;27.676;2023-04-02T08:25:41;98409.81;;;7.90;75.76
64679;BME280;51094;53.864;27.676;2023-04-02T08:28:08;98411.88;;;7.85;75.53
64679;BME280;51094;53.864;27.676;2023-04-02T08:30:35;98415.88;;;7.78;76.08
64679;BME280;51094;53.864;27.676;2023-04-02T08:33:03;98427.50;;;7.73;75.89
64679;BME280;51094;53.864;27.676;2023-04-02T08:35:30;98394.34;;;7.54;76.03
64679;BME280;51094;53.864;27.676;2023-04-02T08:37:57;98387.16;;;7.46;76.80
64679;BME280;51094;53.864;27.676;2023-04-02T08:40:34;98419.84;;;7.71;76.04
64679;BME280;51094;53.864;27.676;2023-04-02T08:48:51;98415.91;;;7.42;75.25
64679;BME280;51094;53.864;27.676;2023-04-02T08:51:33;98412.34;;;7.31;75.99
64679;BME280;51094;53.864;27.676;2023-04-02T08:54:07;98435.81;;;7.65;76.41
64679;BME280;51094;53.864;27.676;2023-04-02T08:56:50;98395.22;;;7.42;75.65
64679;BME280;51094;53.864;27.676;2023-04-02T09:04:49;98432.06;;;7.69;75.16
64679;BME280;51094;53.864;27.676;2023-04-02T09:07:17;98453.19;;;7.87;74.82
64679;BME280;51094;53.864;27.676;2023-04-02T09:09:46;98452.16;;;7.89;74.33
64679;BME280;51094;53.864;27.676;2023-04-02T09:12:19;98403.16;;;7.51;74.35
64679;BME280;51094;53.864;27.676;2023-04-02T09:17:40;98466.84;;;7.89;74.25
64679;BME280;51094;53.864;27.676;2023-04-02T09:20:24;98442.56;;;7.55;74.38
64679;BME280;51094;53.864;27.676;2023-04-02T09:22:52;98477.09;;;7.90;74.26
64679;BME280;51094;53.864;27.676;2023-04-02T09:25:24;98444.50;;;7.88;73.26
64679;BME280;51094;53.864;27.676;2023-04-02T09:27:57;98503.09;;;8.13;73.66
64679;BME280;51094;53.864;27.676;2023-04-02T09:30:39;98489.59;;;8.20;73.71
64679;BME280;51094;53.864;27.676;2023-04-02T09:33:07;98416.13;;;7.75;72.06
64679;BME280;51094;53.864;27.676;2023-04-02T09:35:46;98495.00;;;8.17;73.31
64679;BME280;51094;53.864;27.676;2023-04-02T09:38:24;98499.78;;;8.34;72.69
64679;BME280;51094;53.864;27.676;2023-04-02T09:43:27;98487.72;;;7.98;70.50
64679;BME280;51094;53.864;27.676;2023-04-02T09:48:32;98507.22;;;7.67;70.92
64679;BME280;51094;53.864;27.676;2023-04-02T09:56:19;98476.72;;;7.23;73.14
64679;BME280;51094;53.864;27.676;2023-04-02T10:04:43;98522.38;;;7.48;73.74
64679;BME280;51094;53.864;27.676;2023-04-02T10:07:41;98529.41;;;7.59;73.91
64679;BME280;51094;53.864;27.676;2023-04-02T10:10:19;98533.44;;;7.63;73.26
64679;BME280;51094;53.864;27.676;2023-04-02T10:13:01;98525.28;;;7.44;73.25
64679;BME280;51094;53.864;27.676;2023-04-02T10:15:34;98546.91;;;7.43;72.91
64679;BME280;51094;53.864;27.676;2023-04-02T10:18:14;98538.97;;;7.20;72.59
64679;BME280;51094;53.864;27.676;2023-04-02T10:20:43;98564.94;;;7.31;73.19
64679;BME280;51094;53.864;27.676;2023-04-02T10:23:18;98568.97;;;7.23;72.73
64679;BME280;51094;53.864;27.676;2023-04-02T10:31:59;98608.66;;;6.84;73.30
64679;BME280;51094;53.864;27.676;2023-04-02T10:37:47;98584.41;;;6.47;73.41
64679;BME280;51094;53.864;27.676;2023-04-02T10:40:46;98586.44;;;6.42;73.76
64679;BME280;51094;53.864;27.676;2023-04-02T10:48:56;98592.00;;;6.36;73.88
64679;BME280;51094;53.864;27.676;2023-04-02T10:57:30;98612.03;;;6.32;73.45
64679;BME280;51094;53.864;27.676;2023-04-02T11:00:13;98618.88;;;6.19;73.51
64679;BME280;51094;53.864;27.676;2023-04-02T11:05:15;98624.56;;;6.38;74.10
64679;BME280;51094;53.864;27.676;2023-04-02T11:07:50;98479.78;;;5.60;73.36
64679;BME280;51094;53.864;27.676;2023-04-02T11:10:19;98638.72;;;6.45;72.75
64679;BME280;51094;53.864;27.676;2023-04-02T11:13:20;98615.75;;;6.14;73.07
64679;BME280;51094;53.864;27.676;2023-04-02T11:15:49;98494.84;;;5.25;72.84
64679;BME280;51094;53.864;27.676;2023-04-02T11:20:59;98617.00;;;5.65;73.54
64679;BME280;51094;53.864;27.676;2023-04-02T11:23:34;98664.63;;;5.88;73.48
64679;BME280;51094;53.864;27.676;2023-04-02T11:29:18;98669.09;;;6.00;73.66
64679;BME280;51094;53.864;27.676;2023-04-02T11:31:47;98673.41;;;6.00;73.13
64679;BME280;51094;53.864;27.676;2023-04-02T11:37:33;98681.97;;;5.86;73.08
64679;BME280;51094;53.864;27.676;2023-04-02T11:42:38;98689.22;;;5.65;73.33
64679;BME280;51094;53.864;27.676;2023-04-02T11:50:45;98697.81;;;5.80;74.06
64679;BME280;51094;53.864;27.676;2023-04-02T11:53:20;98716.66;;;5.96;73.62
64679;BME280;51094;53.864;27.676;2023-04-02T12:04:42;98727.84;;;5.81;74.16
64679;BME280;51094;53.864;27.676;2023-04-02T12:07:28;98729.97;;;5.75;74.46
64679;BME280;51094;53.864;27.676;2023-04-02T12:10:17;98705.53;;;5.66;74.42
64679;BME280;51094;53.864;27.676;2023-04-02T12:12:44;98733.16;;;5.64;74.36
64679;BME280;51094;53.864;27.676;2023-04-02T12:15:33;98730.31;;;5.68;75.76
64679;BME280;51094;53.864;27.676;2023-04-02T12:18:08;98736.22;;;5.85;75.50
64679;BME280;51094;53.864;27.676;2023-04-02T12:20:36;98740.66;;;5.83;74.56
64679;BME280;51094;53.864;27.676;2023-04-02T12:23:03;98739.25;;;5.77;75.14
64679;BME280;51094;53.864;27.676;2023-04-02T12:25:35;98737.66;;;5.90;75.23
64679;BME280;51094;53.864;27.676;2023-04-02T12:30:36;98725.25;;;5.81;73.85
64679;BME280;51094;53.864;27.676;2023-04-02T12:35:48;98743.97;;;5.85;74.52
64679;BME280;51094;53.864;27.676;2023-04-02T12:38:22;98769.97;;;5.82;73.69
64679;BME280;51094;53.864;27.676;2023-04-02T12:41:00;98751.44;;;5.75;74.74
64679;BME280;51094;53.864;27.676;2023-04-02T12:43:32;98757.31;;;5.77;74.97
64679;BME280;51094;53.864;27.676;2023-04-02T12:46:03;98740.19;;;5.76;75.00
64679;BME280;51094;53.864;27.676;2023-04-02T12:48:32;98675.94;;;5.29;73.66
64679;BME280;51094;53.864;27.676;2023-04-02T12:51:01;98733.91;;;5.52;74.60
64679;BME280;51094;53.864;27.676;2023-04-02T12:53:33;98683.84;;;5.12;74.39
64679;BME280;51094;53.864;27.676;2023-04-02T12:56:01;98766.25;;;5.57;74.78
64679;BME280;51094;53.864;27.676;2023-04-02T12:58:31;98775.81;;;5.69;74.43
64679;BME280;51094;53.864;27.676;2023-04-02T13:01:20;98772.25;;;5.58;74.94
64679;BME280;51094;53.864;27.676;2023-04-02T13:04:04;98791.78;;;5.62;74.17
64679;BME280;51094;53.864;27.676;2023-04-02T13:06:32;98775.06;;;5.53;75.29
64679;BME280;51094;53.864;27.676;2023-04-02T13:09:01;98791.69;;;5.78;75.38
64679;BME280;51094;53.864;27.676;2023-04-02T13:11:41;98771.97;;;5.62;74.40
64679;BME280;51094;53.864;27.676;2023-04-02T13:14:19;98805.03;;;5.70;74.53
64679;BME280;51094;53.864;27.676;2023-04-02T13:16:46;98801.56;;;5.85;74.84
64679;BME280;51094;53.864;27.676;2023-04-02T13:19:43;98804.16;;;5.85;73.96
64679;BME280;51094;53.864;27.676;2023-04-02T13:22:29;98760.81;;;5.32;73.34
64679;BME280;51094;53.864;27.676;2023-04-02T13:24:59;98812.84;;;5.54;74.59
64679;BME280;51094;53.864;27.676;2023-04-02T13:27:26;98754.16;;;5.14;74.38
64679;BME280;51094;53.864;27.676;2023-04-02T13:29:53;98792.75;;;5.45;74.86
64679;BME280;51094;53.864;27.676;2023-04-02T13:32:19;98815.34;;;5.56;74.65
64679;BME280;51094;53.864;27.676;2023-04-02T13:34:47;98806.13;;;5.52;75.15
64679;BME280;51094;53.864;27.676;2023-04-02T13:37:14;98814.25;;;5.60;74.94
64679;BME280;51094;53.864;27.676;2023-04-02T13:39:41;98805.19;;;5.53;75.29
64679;BME280;51094;53.864;27.676;2023-04-02T13:42:10;98747.81;;;5.19;74.71
64679;BME280;51094;53.864;27.676;2023-04-02T13:44:37;98824.19;;;5.66;74.71
64679;BME280;51094;53.864;27.676;2023-04-02T13:47:03;98843.47;;;5.45;73.58
64679;BME280;51094;53.864;27.676;2023-04-02T13:49:31;98808.69;;;5.06;73.86
64679;BME280;51094;53.864;27.676;2023-04-02T13:51:59;98801.88;;;4.89;75.35
64679;BME280;51094;53.864;27.676;2023-04-02T13:54:50;98825.75;;;4.93;75.23
64679;BME280;51094;53.864;27.676;2023-04-02T13:57:18;98833.53;;;5.23;75.63
64679;BME280;51094;53.864;27.676;2023-04-02T13:59:45;98853.31;;;5.38;76.30
64679;BME280;51094;53.864;27.676;2023-04-02T14:02:17;98747.25;;;4.68;75.81
64679;BME280;51094;53.864;27.676;2023-04-02T14:04:52;98862.47;;;5.28;75.45
64679;BME280;51094;53.864;27.676;2023-04-02T14:13:05;98855.88;;;5.38;75.18
64679;BME280;51094;53.864;27.676;2023-04-02T14:21:31;98695.22;;;3.99;75.17
64679;BME280;51094;53.864;27.676;2023-04-02T14:24:23;98877.63;;;5.03;75.33
64679;BME280;51094;53.864;27.676;2023-04-02T14:27:14;98224.94;;;1.11;75.45
64679;BME280;51094;53.864;27.676;2023-04-02T14:29:52;98886.34;;;5.00;76.12
64679;BME280;51094;53.864;27.676;2023-04-02T14:35:08;98813.47;;;4.66;75.67
64679;BME280;51094;53.864;27.676;2023-04-02T14:37:44;98866.97;;;4.93;75.03
64679;BME280;51094;53.864;27.676;2023-04-02T14:41:28;98901.22;;;4.95;75.21
64679;BME280;51094;53.864;27.676;2023-04-02T14:43:30;98783.06;;;4.09;75.06
64679;BME280;51094;53.864;27.676;2023-04-02T14:46:03;98902.84;;;4.64;74.77
64679;BME280;51094;53.864;27.676;2023-04-02T14:51:42;98911.50;;;4.46;75.69
64679;BME280;51094;53.864;27.676;2023-04-02T14:57:21;98916.13;;;4.57;75.80
64679;BME280;51094;53.864;27.676;2023-04-02T15:02:42;98900.91;;;4.35;76.03
64679;BME280;51094;53.864;27.676;2023-04-02T15:05:18;98940.88;;;4.59;75.99
64679;BME280;51094;53.864;27.676;2023-04-02T15:07:55;98935.56;;;4.62;75.48
64679;BME280;51094;53.864;27.676;2023-04-02T15:10:31;98942.63;;;4.59;76.23
64679;BME280;51094;53.864;27.676;2023-04-02T15:13:03;98938.16;;;4.62;76.15
64679;BME280;51094;53.864;27.676;2023-04-02T15:15:42;98933.91;;;4.61;75.11
64679;BME280;51094;53.864;27.676;2023-04-02T15:18:14;98887.72;;;4.08;75.35
64679;BME280;51094;53.864;27.676;2023-04-02T15:30:13;98967.34;;;4.28;75.57
64679;BME280;51094;53.864;27.676;2023-04-02T15:32:42;98973.78;;;4.20;75.84
64679;BME280;51094;53.864;27.676;2023-04-02T15:35:34;98973.91;;;3.99;75.78
64679;BME280;51094;53.864;27.676;2023-04-02T15:38:13;98981.47;;;3.85;75.59
64679;BME280;51094;53.864;27.676;2023-04-02T15:43:54;98983.16;;;3.67;76.00
64679;BME280;51094;53.864;27.676;2023-04-02T15:51:53;98996.28;;;3.80;76.59
64679;BME280;51094;53.864;27.676;2023-04-02T15:59:47;99013.16;;;3.86;76.76
64679;BME280;51094;53.864;27.676;2023-04-02T16:10:32;98930.69;;;3.17;75.98
64679;BME280;51094;53.864;27.676;2023-04-02T16:15:57;99036.25;;;3.68;76.67
64679;BME280;51094;53.864;27.676;2023-04-02T16:21:09;99025.00;;;3.52;76.26
64679;BME280;51094;53.864;27.676;2023-04-02T16:23:40;99008.06;;;3.29;75.97
64679;BME280;51094;53.864;27.676;2023-04-02T16:31:57;99051.44;;;2.98;77.28
64679;BME280;51094;53.864;27.676;2023-04-02T16:38:14;98898.91;;;2.04;77.25
64679;BME280;51094;53.864;27.676;2023-04-02T16:40:58;99060.91;;;3.16;77.13
64679;BME280;51094;53.864;27.676;2023-04-02T16:43:39;99066.03;;;3.16;77.26
64679;BME280;51094;53.864;27.676;2023-04-02T16:46:32;99019.47;;;2.85;77.20
64679;BME280;51094;53.864;27.676;2023-04-02T16:52:27;99086.19;;;3.25;77.26
64679;BME280;51094;53.864;27.676;2023-04-02T16:57:40;99073.00;;;2.94;76.99
64679;BME280;51094;53.864;27.676;2023-04-02T17:08:35;99123.34;;;2.78;77.95
64679;BME280;51094;53.864;27.676;2023-04-02T17:11:08;99143.63;;;2.84;76.95
64679;BME280;51094;53.864;27.676;2023-04-02T17:13:40;99045.00;;;2.27;76.19
64679;BME280;51094;53.864;27.676;2023-04-02T17:18:39;99090.53;;;2.22;76.88
64679;BME280;51094;53.864;27.676;2023-04-02T17:21:09;99132.72;;;2.79;76.80
64679;BME280;51094;53.864;27.676;2023-04-02T17:26:26;99155.94;;;2.76;76.57
64679;BME280;51094;53.864;27.676;2023-04-02T17:28:56;99110.75;;;2.51;77.26
64679;BME280;51094;53.864;27.676;2023-04-02T17:31:26;99100.72;;;2.65;76.74
64679;BME280;51094;53.864;27.676;2023-04-02T17:33:56;99163.94;;;2.90;76.63
64679;BME280;51094;53.864;27.676;2023-04-02T17:45:03;99156.19;;;2.70;76.87
64679;BME280;51094;53.864;27.676;2023-04-02T17:47:32;99108.06;;;2.32;76.55
64679;BME280;51094;53.864;27.676;2023-04-02T17:53:13;99160.03;;;2.59;76.85
64679;BME280;51094;53.864;27.676;2023-04-02T17:56:03;99159.50;;;2.51;76.92